sensor_id;sensor_type;location;lat;lon;timestamp;temperature;humidity
14924;DHT22;7554;43.600;1.480;2022-10-03T00:00:12;16.40;1.00
14924;DHT22;7554;43.600;1.480;2022-10-03T00:06:00;16.30;1.00
14924;DHT22;7554;43.600;1.480;2022-10-03T00:08:53;16.30;1.00
14924;DHT22;7554;43.600;1.480;2022-10-03T00:11:31;16.30;1.00
14924;DHT22;7554;43.600;1.480;2022-10-03T00:14:05;16.20;1.00
14924;DHT22;7554;43.600;1.480;2022-10-03T00:16:44;16.20;1.00
14924;DHT22;7554;43.600;1.480;2022-10-03T00:19:23;16.20;1.00
14924;DHT22;7554;43.600;1.480;2022-10-03T00:22:03;16.20;1.00
14924;DHT22;7554;43.600;1.480;2022-10-03T00:24:43;16.10;1.00
14924;DHT22;7554;43.600;1.480;2022-10-03T00:27:18;16.10;1.00
14924;DHT22;7554;43.600;1.480;2022-10-03T00:30:12;16.00;1.00
14924;DHT22;7554;43.600;1.480;2022-10-03T00:32:55;16.00;1.00
14924;DHT22;7554;43.600;1.480;2022-10-03T00:41:36;16.00;1.00
14924;DHT22;7554;43.600;1.480;2022-10-03T00:44:45;15.90;1.00
14924;DHT22;7554;43.600;1.480;2022-10-03T00:47:37;15.90;1.00
14924;DHT22;7554;43.600;1.480;2022-10-03T00:50:20;15.90;1.00
14924;DHT22;7554;43.600;1.480;2022-10-03T00:53:07;15.80;1.00
14924;DHT22;7554;43.600;1.480;2022-10-03T00:55:48;15.80;1.00
14924;DHT22;7554;43.600;1.480;2022-10-03T00:58:42;15.80;1.00
14924;DHT22;7554;43.600;1.480;2022-10-03T01:01:23;15.80;1.00
14924;DHT22;7554;43.600;1.480;2022-10-03T01:04:06;15.80;1.00
14924;DHT22;7554;43.600;1.480;2022-10-03T01:06:42;15.70;1.00
14924;DHT22;7554;43.600;1.480;2022-10-03T01:09:19;15.70;1.00
14924;DHT22;7554;43.600;1.480;2022-10-03T01:11:59;15.80;1.00
14924;DHT22;7554;43.600;1.480;2022-10-03T01:14:51;15.70;1.00
14924;DHT22;7554;43.600;1.480;2022-10-03T01:17:29;15.80;1.00
14924;DHT22;7554;43.600;1.480;2022-10-03T01:20:09;15.80;1.00
14924;DHT22;7554;43.600;1.480;2022-10-03T01:23:24;15.90;1.00
14924;DHT22;7554;43.600;1.480;2022-10-03T01:26:06;15.80;1.00
14924;DHT22;7554;43.600;1.480;2022-10-03T01:28:45;15.80;1.00
14924;DHT22;7554;43.600;1.480;2022-10-03T01:31:37;15.70;1.00
14924;DHT22;7554;43.600;1.480;2022-10-03T01:34:11;15.80;1.00
14924;DHT22;7554;43.600;1.480;2022-10-03T01:36:46;15.80;1.00
14924;DHT22;7554;43.600;1.480;2022-10-03T01:39:23;15.90;1.00
14924;DHT22;7554;43.600;1.480;2022-10-03T01:41:58;15.90;1.00
14924;DHT22;7554;43.600;1.480;2022-10-03T01:44:35;16.00;1.00
14924;DHT22;7554;43.600;1.480;2022-10-03T01:47:17;16.00;1.00
14924;DHT22;7554;43.600;1.480;2022-10-03T01:49:52;16.00;1.00
14924;DHT22;7554;43.600;1.480;2022-10-03T01:52:25;16.00;1.00
14924;DHT22;7554;43.600;1.480;2022-10-03T01:55:00;16.00;1.00
14924;DHT22;7554;43.600;1.480;2022-10-03T01:57:37;16.00;1.00
14924;DHT22;7554;43.600;1.480;2022-10-03T02:00:12;16.00;1.00
14924;DHT22;7554;43.600;1.480;2022-10-03T02:02:44;16.00;1.00
14924;DHT22;7554;43.600;1.480;2022-10-03T02:05:18;16.00;1.00
14924;DHT22;7554;43.600;1.480;2022-10-03T02:07:52;16.10;1.00
14924;DHT22;7554;43.600;1.480;2022-10-03T02:10:32;16.00;1.00
14924;DHT22;7554;43.600;1.480;2022-10-03T02:13:08;16.10;1.00
14924;DHT22;7554;43.600;1.480;2022-10-03T02:15:55;16.10;1.00
14924;DHT22;7554;43.600;1.480;2022-10-03T02:18:28;16.20;1.00
14924;DHT22;7554;43.600;1.480;2022-10-03T02:21:09;16.20;1.00
14924;DHT22;7554;43.600;1.480;2022-10-03T02:23:40;16.20;1.00
14924;DHT22;7554;43.600;1.480;2022-10-03T02:29:54;16.20;1.00
14924;DHT22;7554;43.600;1.480;2022-10-03T02:33:08;16.20;1.00
14924;DHT22;7554;43.600;1.480;2022-10-03T02:35:54;16.20;1.00
14924;DHT22;7554;43.600;1.480;2022-10-03T02:38:43;16.20;1.00
14924;DHT22;7554;43.600;1.480;2022-10-03T02:41:35;16.20;1.00
14924;DHT22;7554;43.600;1.480;2022-10-03T02:50:56;16.20;1.00
14924;DHT22;7554;43.600;1.480;2022-10-03T03:03:04;16.30;1.00
14924;DHT22;7554;43.600;1.480;2022-10-03T03:09:00;16.30;1.00
14924;DHT22;7554;43.600;1.480;2022-10-03T03:11:52;16.30;1.00
14924;DHT22;7554;43.600;1.480;2022-10-03T03:14:45;16.30;1.00
14924;DHT22;7554;43.600;1.480;2022-10-03T03:17:26;16.30;1.00
14924;DHT22;7554;43.600;1.480;2022-10-03T03:20:08;16.30;1.00
14924;DHT22;7554;43.600;1.480;2022-10-03T03:22:49;16.30;1.00
14924;DHT22;7554;43.600;1.480;2022-10-03T03:25:39;16.30;1.00
14924;DHT22;7554;43.600;1.480;2022-10-03T03:28:21;16.30;1.00
14924;DHT22;7554;43.600;1.480;2022-10-03T03:31:02;16.30;1.00
14924;DHT22;7554;43.600;1.480;2022-10-03T03:33:41;16.30;1.00
14924;DHT22;7554;43.600;1.480;2022-10-03T03:36:15;16.30;1.00
14924;DHT22;7554;43.600;1.480;2022-10-03T03:38:51;16.30;1.00
14924;DHT22;7554;43.600;1.480;2022-10-03T03:41:45;16.30;1.00
14924;DHT22;7554;43.600;1.480;2022-10-03T03:44:49;16.30;1.00
14924;DHT22;7554;43.600;1.480;2022-10-03T03:47:47;16.30;1.00
14924;DHT22;7554;43.600;1.480;2022-10-03T03:50:37;16.30;1.00
14924;DHT22;7554;43.600;1.480;2022-10-03T03:53:21;16.20;1.00
14924;DHT22;7554;43.600;1.480;2022-10-03T03:56:14;16.20;1.00
14924;DHT22;7554;43.600;1.480;2022-10-03T03:58:51;16.20;1.00
14924;DHT22;7554;43.600;1.480;2022-10-03T04:01:38;16.30;1.00
14924;DHT22;7554;43.600;1.480;2022-10-03T04:04:20;16.30;1.00
14924;DHT22;7554;43.600;1.480;2022-10-03T04:07:09;16.20;1.00
14924;DHT22;7554;43.600;1.480;2022-10-03T04:10:10;16.20;1.00
14924;DHT22;7554;43.600;1.480;2022-10-03T04:13:07;16.20;1.00
14924;DHT22;7554;43.600;1.480;2022-10-03T04:15:55;16.20;1.00
14924;DHT22;7554;43.600;1.480;2022-10-03T04:18:45;16.10;1.00
14924;DHT22;7554;43.600;1.480;2022-10-03T04:21:45;16.10;1.00
14924;DHT22;7554;43.600;1.480;2022-10-03T04:24:46;16.10;1.00
14924;DHT22;7554;43.600;1.480;2022-10-03T04:27:52;16.10;1.00
14924;DHT22;7554;43.600;1.480;2022-10-03T04:30:30;16.10;1.00
14924;DHT22;7554;43.600;1.480;2022-10-03T04:33:18;16.10;1.00
14924;DHT22;7554;43.600;1.480;2022-10-03T04:36:17;16.10;1.00
14924;DHT22;7554;43.600;1.480;2022-10-03T04:38:59;16.10;1.00
14924;DHT22;7554;43.600;1.480;2022-10-03T04:41:36;16.10;1.00
14924;DHT22;7554;43.600;1.480;2022-10-03T04:44:14;16.10;1.00
14924;DHT22;7554;43.600;1.480;2022-10-03T04:46:51;16.00;1.00
14924;DHT22;7554;43.600;1.480;2022-10-03T04:49:29;16.00;1.00
14924;DHT22;7554;43.600;1.480;2022-10-03T04:52:04;16.00;1.00
14924;DHT22;7554;43.600;1.480;2022-10-03T04:54:41;16.00;1.00
14924;DHT22;7554;43.600;1.480;2022-10-03T04:57:29;16.00;1.00
14924;DHT22;7554;43.600;1.480;2022-10-03T05:00:04;16.10;1.00
14924;DHT22;7554;43.600;1.480;2022-10-03T05:02:42;16.10;1.00
14924;DHT22;7554;43.600;1.480;2022-10-03T05:08:28;16.10;1.00
14924;DHT22;7554;43.600;1.480;2022-10-03T05:11:03;16.10;1.00
14924;DHT22;7554;43.600;1.480;2022-10-03T05:13:43;16.10;1.00
14924;DHT22;7554;43.600;1.480;2022-10-03T05:16:22;16.00;1.00
14924;DHT22;7554;43.600;1.480;2022-10-03T05:18:56;15.90;1.00
14924;DHT22;7554;43.600;1.480;2022-10-03T05:21:36;15.90;1.00
14924;DHT22;7554;43.600;1.480;2022-10-03T05:24:15;15.90;1.00
14924;DHT22;7554;43.600;1.480;2022-10-03T05:26:52;15.80;1.00
14924;DHT22;7554;43.600;1.480;2022-10-03T05:29:30;15.90;1.00
14924;DHT22;7554;43.600;1.480;2022-10-03T05:32:12;15.90;1.00
14924;DHT22;7554;43.600;1.480;2022-10-03T05:35:19;15.90;1.00
14924;DHT22;7554;43.600;1.480;2022-10-03T05:41:01;15.90;1.00
14924;DHT22;7554;43.600;1.480;2022-10-03T05:43:43;15.90;1.00
14924;DHT22;7554;43.600;1.480;2022-10-03T05:46:18;15.90;1.00
14924;DHT22;7554;43.600;1.480;2022-10-03T05:48:48;15.80;1.00
14924;DHT22;7554;43.600;1.480;2022-10-03T05:51:35;15.80;1.00
14924;DHT22;7554;43.600;1.480;2022-10-03T05:57:32;15.70;1.00
14924;DHT22;7554;43.600;1.480;2022-10-03T06:00:15;15.60;1.00
14924;DHT22;7554;43.600;1.480;2022-10-03T06:03:20;15.70;1.00
14924;DHT22;7554;43.600;1.480;2022-10-03T06:06:12;15.70;1.00
14924;DHT22;7554;43.600;1.480;2022-10-03T06:09:18;15.70;1.00
14924;DHT22;7554;43.600;1.480;2022-10-03T06:12:08;15.80;1.00
14924;DHT22;7554;43.600;1.480;2022-10-03T06:17:59;15.80;1.00
14924;DHT22;7554;43.600;1.480;2022-10-03T06:26:42;16.00;1.00
14924;DHT22;7554;43.600;1.480;2022-10-03T06:29:53;16.10;1.00
14924;DHT22;7554;43.600;1.480;2022-10-03T06:42:00;16.50;1.00
14924;DHT22;7554;43.600;1.480;2022-10-03T06:44:48;16.70;1.00
14924;DHT22;7554;43.600;1.480;2022-10-03T06:47:30;17.00;1.00
14924;DHT22;7554;43.600;1.480;2022-10-03T06:50:26;17.60;1.00
14924;DHT22;7554;43.600;1.480;2022-10-03T06:56:17;18.20;1.00
14924;DHT22;7554;43.600;1.480;2022-10-03T06:59:16;18.40;1.00
14924;DHT22;7554;43.600;1.480;2022-10-03T07:05:19;19.60;1.00
14924;DHT22;7554;43.600;1.480;2022-10-03T07:08:31;19.70;1.00
14924;DHT22;7554;43.600;1.480;2022-10-03T07:11:24;20.50;1.00
14924;DHT22;7554;43.600;1.480;2022-10-03T07:14:13;20.50;1.00
14924;DHT22;7554;43.600;1.480;2022-10-03T07:26:35;20.80;1.00
14924;DHT22;7554;43.600;1.480;2022-10-03T07:29:24;20.60;1.00
14924;DHT22;7554;43.600;1.480;2022-10-03T07:35:24;20.50;1.00
14924;DHT22;7554;43.600;1.480;2022-10-03T07:48:13;22.90;1.00
14924;DHT22;7554;43.600;1.480;2022-10-03T07:54:14;24.80;1.00
14924;DHT22;7554;43.600;1.480;2022-10-03T07:57:08;25.70;1.00
14924;DHT22;7554;43.600;1.480;2022-10-03T08:00:02;25.70;1.00
14924;DHT22;7554;43.600;1.480;2022-10-03T08:05:59;26.20;1.00
14924;DHT22;7554;43.600;1.480;2022-10-03T08:12:09;26.80;1.00
14924;DHT22;7554;43.600;1.480;2022-10-03T08:14:49;26.90;1.00
14924;DHT22;7554;43.600;1.480;2022-10-03T08:17:49;25.90;1.00
14924;DHT22;7554;43.600;1.480;2022-10-03T08:20:32;25.80;1.00
14924;DHT22;7554;43.600;1.480;2022-10-03T08:23:20;25.60;1.00
14924;DHT22;7554;43.600;1.480;2022-10-03T08:25:57;25.10;1.00
14924;DHT22;7554;43.600;1.480;2022-10-03T08:35:23;23.20;1.00
14924;DHT22;7554;43.600;1.480;2022-10-03T08:41:34;22.40;1.00
14924;DHT22;7554;43.600;1.480;2022-10-03T08:44:39;22.30;1.00
14924;DHT22;7554;43.600;1.480;2022-10-03T08:50:27;22.10;1.00
14924;DHT22;7554;43.600;1.480;2022-10-03T08:53:23;21.90;1.00
14924;DHT22;7554;43.600;1.480;2022-10-03T08:55:58;21.90;1.00
14924;DHT22;7554;43.600;1.480;2022-10-03T09:02:26;21.60;1.00
14924;DHT22;7554;43.600;1.480;2022-10-03T09:05:24;21.80;1.00
14924;DHT22;7554;43.600;1.480;2022-10-03T09:11:33;21.80;1.00
14924;DHT22;7554;43.600;1.480;2022-10-03T09:14:49;21.80;1.00
14924;DHT22;7554;43.600;1.480;2022-10-03T09:20:59;21.90;1.00
14924;DHT22;7554;43.600;1.480;2022-10-03T09:27:07;21.70;1.00
14924;DHT22;7554;43.600;1.480;2022-10-03T09:30:03;21.70;1.00
14924;DHT22;7554;43.600;1.480;2022-10-03T09:36:03;21.60;1.00
14924;DHT22;7554;43.600;1.480;2022-10-03T09:39:01;21.90;1.00
14924;DHT22;7554;43.600;1.480;2022-10-03T09:45:05;21.60;1.00
14924;DHT22;7554;43.600;1.480;2022-10-03T09:51:03;21.20;1.00
14924;DHT22;7554;43.600;1.480;2022-10-03T09:57:14;21.60;1.00
14924;DHT22;7554;43.600;1.480;2022-10-03T10:00:01;21.60;1.00
14924;DHT22;7554;43.600;1.480;2022-10-03T10:02:57;21.80;1.00
14924;DHT22;7554;43.600;1.480;2022-10-03T10:05:45;21.90;1.00
14924;DHT22;7554;43.600;1.480;2022-10-03T10:08:41;21.90;1.00
14924;DHT22;7554;43.600;1.480;2022-10-03T10:11:33;21.90;1.00
14924;DHT22;7554;43.600;1.480;2022-10-03T10:14:27;21.30;1.00
14924;DHT22;7554;43.600;1.480;2022-10-03T10:20:26;21.10;1.00
14924;DHT22;7554;43.600;1.480;2022-10-03T10:23:23;21.30;1.00
14924;DHT22;7554;43.600;1.480;2022-10-03T10:26:43;21.50;1.00
14924;DHT22;7554;43.600;1.480;2022-10-03T10:29:34;21.70;1.00
14924;DHT22;7554;43.600;1.480;2022-10-03T10:38:34;21.40;1.00
14924;DHT22;7554;43.600;1.480;2022-10-03T10:41:48;21.60;1.00
14924;DHT22;7554;43.600;1.480;2022-10-03T10:57:23;22.00;1.00
14924;DHT22;7554;43.600;1.480;2022-10-03T11:00:17;22.00;1.00
14924;DHT22;7554;43.600;1.480;2022-10-03T11:16:04;21.90;1.00
14924;DHT22;7554;43.600;1.480;2022-10-03T11:28:40;22.30;1.00
14924;DHT22;7554;43.600;1.480;2022-10-03T11:31:53;22.10;1.00
14924;DHT22;7554;43.600;1.480;2022-10-03T11:37:40;21.80;1.00
14924;DHT22;7554;43.600;1.480;2022-10-03T11:40:26;21.70;1.00
14924;DHT22;7554;43.600;1.480;2022-10-03T11:46:24;21.60;1.00
14924;DHT22;7554;43.600;1.480;2022-10-03T11:48:57;21.40;1.00
14924;DHT22;7554;43.600;1.480;2022-10-03T11:51:37;21.40;1.00
14924;DHT22;7554;43.600;1.480;2022-10-03T11:54:18;21.30;1.00
14924;DHT22;7554;43.600;1.480;2022-10-03T11:56:49;21.30;1.00
14924;DHT22;7554;43.600;1.480;2022-10-03T11:59:38;21.30;1.00
14924;DHT22;7554;43.600;1.480;2022-10-03T12:02:27;21.40;1.00
14924;DHT22;7554;43.600;1.480;2022-10-03T12:05:05;21.40;1.00
14924;DHT22;7554;43.600;1.480;2022-10-03T12:07:43;21.50;1.00
14924;DHT22;7554;43.600;1.480;2022-10-03T12:10:46;21.60;1.00
14924;DHT22;7554;43.600;1.480;2022-10-03T12:13:19;21.70;1.00
14924;DHT22;7554;43.600;1.480;2022-10-03T12:15:51;21.70;1.00
14924;DHT22;7554;43.600;1.480;2022-10-03T12:18:24;21.70;1.00
14924;DHT22;7554;43.600;1.480;2022-10-03T12:21:07;21.70;1.00
14924;DHT22;7554;43.600;1.480;2022-10-03T12:24:00;21.70;1.00
14924;DHT22;7554;43.600;1.480;2022-10-03T12:26:38;21.80;1.00
14924;DHT22;7554;43.600;1.480;2022-10-03T12:29:10;21.80;1.00
14924;DHT22;7554;43.600;1.480;2022-10-03T12:31:41;21.70;1.00
14924;DHT22;7554;43.600;1.480;2022-10-03T12:34:26;21.70;1.00
14924;DHT22;7554;43.600;1.480;2022-10-03T12:37:13;21.70;1.00
14924;DHT22;7554;43.600;1.480;2022-10-03T12:39:50;21.60;1.00
14924;DHT22;7554;43.600;1.480;2022-10-03T12:42:27;21.60;1.00
14924;DHT22;7554;43.600;1.480;2022-10-03T12:44:58;21.60;1.00
14924;DHT22;7554;43.600;1.480;2022-10-03T12:47:34;21.60;1.00
14924;DHT22;7554;43.600;1.480;2022-10-03T12:50:13;21.60;1.00
14924;DHT22;7554;43.600;1.480;2022-10-03T12:52:59;21.70;1.00
14924;DHT22;7554;43.600;1.480;2022-10-03T12:55:32;21.80;1.00
14924;DHT22;7554;43.600;1.480;2022-10-03T12:58:09;21.90;1.00
14924;DHT22;7554;43.600;1.480;2022-10-03T13:00:47;21.90;1.00
14924;DHT22;7554;43.600;1.480;2022-10-03T13:03:26;21.90;1.00
14924;DHT22;7554;43.600;1.480;2022-10-03T13:06:19;21.80;1.00
14924;DHT22;7554;43.600;1.480;2022-10-03T13:09:07;21.80;1.00
14924;DHT22;7554;43.600;1.480;2022-10-03T13:11:46;21.80;1.00
14924;DHT22;7554;43.600;1.480;2022-10-03T13:14:33;21.80;1.00
14924;DHT22;7554;43.600;1.480;2022-10-03T13:17:16;21.80;1.00
14924;DHT22;7554;43.600;1.480;2022-10-03T13:19:54;21.80;1.00
14924;DHT22;7554;43.600;1.480;2022-10-03T13:22:33;21.80;1.00
14924;DHT22;7554;43.600;1.480;2022-10-03T13:25:07;21.90;1.00
14924;DHT22;7554;43.600;1.480;2022-10-03T13:27:41;21.90;1.00
14924;DHT22;7554;43.600;1.480;2022-10-03T13:30:17;21.80;1.00
14924;DHT22;7554;43.600;1.480;2022-10-03T13:32:49;21.80;1.00
14924;DHT22;7554;43.600;1.480;2022-10-03T13:35:37;21.90;1.00
14924;DHT22;7554;43.600;1.480;2022-10-03T13:38:50;21.90;1.00
14924;DHT22;7554;43.600;1.480;2022-10-03T13:41:30;21.90;1.00
14924;DHT22;7554;43.600;1.480;2022-10-03T13:44:00;21.90;1.00
14924;DHT22;7554;43.600;1.480;2022-10-03T13:46:38;21.90;1.00
14924;DHT22;7554;43.600;1.480;2022-10-03T13:49:13;21.90;1.00
14924;DHT22;7554;43.600;1.480;2022-10-03T13:51:49;21.80;1.00
14924;DHT22;7554;43.600;1.480;2022-10-03T13:54:27;21.80;1.00
14924;DHT22;7554;43.600;1.480;2022-10-03T13:57:13;22.00;1.00
14924;DHT22;7554;43.600;1.480;2022-10-03T14:03:00;22.00;1.00
14924;DHT22;7554;43.600;1.480;2022-10-03T14:08:58;21.90;1.00
14924;DHT22;7554;43.600;1.480;2022-10-03T14:11:35;21.90;1.00
14924;DHT22;7554;43.600;1.480;2022-10-03T14:14:25;21.90;1.00
14924;DHT22;7554;43.600;1.480;2022-10-03T14:17:04;21.90;1.00
14924;DHT22;7554;43.600;1.480;2022-10-03T14:19:41;21.90;1.00
14924;DHT22;7554;43.600;1.480;2022-10-03T14:22:22;21.90;1.00
14924;DHT22;7554;43.600;1.480;2022-10-03T14:25:03;21.90;1.00
14924;DHT22;7554;43.600;1.480;2022-10-03T14:27:42;22.00;1.00
14924;DHT22;7554;43.600;1.480;2022-10-03T14:30:13;22.00;1.00
14924;DHT22;7554;43.600;1.480;2022-10-03T14:32:56;22.00;1.00
14924;DHT22;7554;43.600;1.480;2022-10-03T14:35:35;21.90;1.00
14924;DHT22;7554;43.600;1.480;2022-10-03T14:41:23;21.90;1.00
14924;DHT22;7554;43.600;1.480;2022-10-03T14:43:55;22.00;1.00
14924;DHT22;7554;43.600;1.480;2022-10-03T14:46:26;22.00;1.00
14924;DHT22;7554;43.600;1.480;2022-10-03T14:48:56;21.90;1.00
14924;DHT22;7554;43.600;1.480;2022-10-03T14:51:28;21.80;1.00
14924;DHT22;7554;43.600;1.480;2022-10-03T14:54:01;21.80;1.00
14924;DHT22;7554;43.600;1.480;2022-10-03T14:56:32;21.90;1.00
14924;DHT22;7554;43.600;1.480;2022-10-03T14:59:02;21.80;1.00
14924;DHT22;7554;43.600;1.480;2022-10-03T15:01:46;21.80;1.00
14924;DHT22;7554;43.600;1.480;2022-10-03T15:07:04;21.90;1.00
14924;DHT22;7554;43.600;1.480;2022-10-03T15:09:42;21.90;1.00
14924;DHT22;7554;43.600;1.480;2022-10-03T15:12:17;21.80;1.00
14924;DHT22;7554;43.600;1.480;2022-10-03T15:14:48;21.70;1.00
14924;DHT22;7554;43.600;1.480;2022-10-03T15:17:25;21.90;1.00
14924;DHT22;7554;43.600;1.480;2022-10-03T15:19:54;21.80;1.00
14924;DHT22;7554;43.600;1.480;2022-10-03T15:22:29;21.80;1.00
14924;DHT22;7554;43.600;1.480;2022-10-03T15:25:03;21.70;1.00
14924;DHT22;7554;43.600;1.480;2022-10-03T15:27:33;21.70;1.00
14924;DHT22;7554;43.600;1.480;2022-10-03T15:30:03;21.70;1.00
14924;DHT22;7554;43.600;1.480;2022-10-03T15:32:35;21.60;1.00
14924;DHT22;7554;43.600;1.480;2022-10-03T15:35:05;21.60;1.00
14924;DHT22;7554;43.600;1.480;2022-10-03T15:37:35;21.50;1.00
14924;DHT22;7554;43.600;1.480;2022-10-03T15:40:07;21.50;1.00
14924;DHT22;7554;43.600;1.480;2022-10-03T15:42:47;21.50;1.00
14924;DHT22;7554;43.600;1.480;2022-10-03T15:45:23;21.50;1.00
14924;DHT22;7554;43.600;1.480;2022-10-03T15:47:57;21.50;1.00
14924;DHT22;7554;43.600;1.480;2022-10-03T15:50:27;21.50;1.00
14924;DHT22;7554;43.600;1.480;2022-10-03T15:52:57;21.50;1.00
14924;DHT22;7554;43.600;1.480;2022-10-03T15:55:31;21.40;1.00
14924;DHT22;7554;43.600;1.480;2022-10-03T15:58:10;21.40;1.00
14924;DHT22;7554;43.600;1.480;2022-10-03T16:00:41;21.40;1.00
14924;DHT22;7554;43.600;1.480;2022-10-03T16:03:14;21.40;1.00
14924;DHT22;7554;43.600;1.480;2022-10-03T16:05:52;21.40;1.00
14924;DHT22;7554;43.600;1.480;2022-10-03T16:08:25;21.40;1.00
14924;DHT22;7554;43.600;1.480;2022-10-03T16:11:02;21.30;1.00
14924;DHT22;7554;43.600;1.480;2022-10-03T16:13:35;21.30;1.00
14924;DHT22;7554;43.600;1.480;2022-10-03T16:16:12;21.30;1.00
14924;DHT22;7554;43.600;1.480;2022-10-03T16:18:47;21.20;1.00
14924;DHT22;7554;43.600;1.480;2022-10-03T16:21:29;21.10;1.00
14924;DHT22;7554;43.600;1.480;2022-10-03T16:24:00;21.10;1.00
14924;DHT22;7554;43.600;1.480;2022-10-03T16:26:30;21.10;1.00
14924;DHT22;7554;43.600;1.480;2022-10-03T16:29:10;21.00;1.00
14924;DHT22;7554;43.600;1.480;2022-10-03T16:31:42;21.00;1.00
14924;DHT22;7554;43.600;1.480;2022-10-03T16:34:14;20.90;1.00
14924;DHT22;7554;43.600;1.480;2022-10-03T16:36:44;20.90;1.00
14924;DHT22;7554;43.600;1.480;2022-10-03T16:39:18;20.80;1.00
14924;DHT22;7554;43.600;1.480;2022-10-03T16:41:49;20.90;1.00
14924;DHT22;7554;43.600;1.480;2022-10-03T16:44:22;20.90;1.00
14924;DHT22;7554;43.600;1.480;2022-10-03T16:46:52;20.90;1.00
14924;DHT22;7554;43.600;1.480;2022-10-03T16:49:35;20.90;1.00
14924;DHT22;7554;43.600;1.480;2022-10-03T16:52:24;20.90;1.00
14924;DHT22;7554;43.600;1.480;2022-10-03T16:55:02;20.80;1.00
14924;DHT22;7554;43.600;1.480;2022-10-03T16:57:37;20.70;1.00
14924;DHT22;7554;43.600;1.480;2022-10-03T17:00:14;20.70;1.00
14924;DHT22;7554;43.600;1.480;2022-10-03T17:02:44;20.60;1.00
14924;DHT22;7554;43.600;1.480;2022-10-03T17:05:14;20.60;1.00
14924;DHT22;7554;43.600;1.480;2022-10-03T17:07:43;20.50;1.00
14924;DHT22;7554;43.600;1.480;2022-10-03T17:10:30;20.50;1.00
14924;DHT22;7554;43.600;1.480;2022-10-03T17:13:01;20.40;1.00
14924;DHT22;7554;43.600;1.480;2022-10-03T17:15:31;20.30;1.00
14924;DHT22;7554;43.600;1.480;2022-10-03T17:18:10;20.20;1.00
14924;DHT22;7554;43.600;1.480;2022-10-03T17:20:44;20.20;1.00
14924;DHT22;7554;43.600;1.480;2022-10-03T17:23:23;20.10;1.00
14924;DHT22;7554;43.600;1.480;2022-10-03T17:26:00;20.10;1.00
14924;DHT22;7554;43.600;1.480;2022-10-03T17:28:38;20.10;1.00
14924;DHT22;7554;43.600;1.480;2022-10-03T17:31:24;20.00;1.00
14924;DHT22;7554;43.600;1.480;2022-10-03T17:33:58;19.90;1.00
14924;DHT22;7554;43.600;1.480;2022-10-03T17:37:11;19.90;1.00
14924;DHT22;7554;43.600;1.480;2022-10-03T17:39:49;19.80;1.00
14924;DHT22;7554;43.600;1.480;2022-10-03T17:42:37;19.80;1.00
14924;DHT22;7554;43.600;1.480;2022-10-03T17:45:15;19.70;1.00
14924;DHT22;7554;43.600;1.480;2022-10-03T17:47:53;19.70;1.00
14924;DHT22;7554;43.600;1.480;2022-10-03T17:50:27;19.70;1.00
14924;DHT22;7554;43.600;1.480;2022-10-03T17:52:58;19.60;1.00
14924;DHT22;7554;43.600;1.480;2022-10-03T17:55:30;19.60;1.00
14924;DHT22;7554;43.600;1.480;2022-10-03T17:58:02;19.50;1.00
14924;DHT22;7554;43.600;1.480;2022-10-03T18:00:52;19.50;1.00
14924;DHT22;7554;43.600;1.480;2022-10-03T18:03:23;19.50;1.00
14924;DHT22;7554;43.600;1.480;2022-10-03T18:05:52;19.50;1.00
14924;DHT22;7554;43.600;1.480;2022-10-03T18:08:27;19.40;1.00
14924;DHT22;7554;43.600;1.480;2022-10-03T18:10:57;19.40;1.00
14924;DHT22;7554;43.600;1.480;2022-10-03T18:13:30;19.40;1.00
14924;DHT22;7554;43.600;1.480;2022-10-03T18:16:18;19.30;1.00
14924;DHT22;7554;43.600;1.480;2022-10-03T18:19:02;19.30;1.00
14924;DHT22;7554;43.600;1.480;2022-10-03T18:21:53;19.30;1.00
14924;DHT22;7554;43.600;1.480;2022-10-03T18:27:59;19.20;1.00
14924;DHT22;7554;43.600;1.480;2022-10-03T18:30:33;19.20;1.00
14924;DHT22;7554;43.600;1.480;2022-10-03T18:33:02;19.10;1.00
14924;DHT22;7554;43.600;1.480;2022-10-03T18:35:34;19.10;1.00
14924;DHT22;7554;43.600;1.480;2022-10-03T18:38:11;19.10;1.00
14924;DHT22;7554;43.600;1.480;2022-10-03T18:40:47;19.10;1.00
14924;DHT22;7554;43.600;1.480;2022-10-03T18:43:35;19.10;1.00
14924;DHT22;7554;43.600;1.480;2022-10-03T18:46:16;19.20;1.00
14924;DHT22;7554;43.600;1.480;2022-10-03T18:48:57;19.20;1.00
14924;DHT22;7554;43.600;1.480;2022-10-03T18:51:32;19.10;1.00
14924;DHT22;7554;43.600;1.480;2022-10-03T18:54:04;19.00;1.00
14924;DHT22;7554;43.600;1.480;2022-10-03T18:56:35;18.90;1.00
14924;DHT22;7554;43.600;1.480;2022-10-03T18:59:12;18.90;1.00
14924;DHT22;7554;43.600;1.480;2022-10-03T19:01:48;18.90;1.00
14924;DHT22;7554;43.600;1.480;2022-10-03T19:04:30;18.90;1.00
14924;DHT22;7554;43.600;1.480;2022-10-03T19:07:01;18.90;1.00
14924;DHT22;7554;43.600;1.480;2022-10-03T19:09:33;18.90;1.00
14924;DHT22;7554;43.600;1.480;2022-10-03T19:12:08;18.90;1.00
14924;DHT22;7554;43.600;1.480;2022-10-03T19:14:42;18.80;1.00
14924;DHT22;7554;43.600;1.480;2022-10-03T19:17:20;18.80;1.00
14924;DHT22;7554;43.600;1.480;2022-10-03T19:19:52;18.80;1.00
14924;DHT22;7554;43.600;1.480;2022-10-03T19:22:24;18.80;1.00
14924;DHT22;7554;43.600;1.480;2022-10-03T19:24:57;18.80;1.00
14924;DHT22;7554;43.600;1.480;2022-10-03T19:27:41;18.80;1.00
14924;DHT22;7554;43.600;1.480;2022-10-03T19:30:11;18.70;1.00
14924;DHT22;7554;43.600;1.480;2022-10-03T19:32:48;18.70;1.00
14924;DHT22;7554;43.600;1.480;2022-10-03T19:35:19;18.60;1.00
14924;DHT22;7554;43.600;1.480;2022-10-03T19:37:49;18.60;1.00
14924;DHT22;7554;43.600;1.480;2022-10-03T19:40:37;18.50;1.00
14924;DHT22;7554;43.600;1.480;2022-10-03T19:43:33;18.40;1.00
14924;DHT22;7554;43.600;1.480;2022-10-03T19:46:24;18.30;1.00
14924;DHT22;7554;43.600;1.480;2022-10-03T19:51:48;18.20;1.00
14924;DHT22;7554;43.600;1.480;2022-10-03T19:54:27;18.20;1.00
14924;DHT22;7554;43.600;1.480;2022-10-03T19:56:57;18.20;1.00
14924;DHT22;7554;43.600;1.480;2022-10-03T19:59:43;18.20;1.00
14924;DHT22;7554;43.600;1.480;2022-10-03T20:02:10;18.20;1.00
14924;DHT22;7554;43.600;1.480;2022-10-03T20:04:38;18.20;1.00
14924;DHT22;7554;43.600;1.480;2022-10-03T20:07:15;18.20;1.00
14924;DHT22;7554;43.600;1.480;2022-10-03T20:09:54;18.10;1.00
14924;DHT22;7554;43.600;1.480;2022-10-03T20:12:24;18.10;1.00
14924;DHT22;7554;43.600;1.480;2022-10-03T20:14:58;18.10;1.00
14924;DHT22;7554;43.600;1.480;2022-10-03T20:17:26;18.10;1.00
14924;DHT22;7554;43.600;1.480;2022-10-03T20:19:56;18.00;1.00
14924;DHT22;7554;43.600;1.480;2022-10-03T20:22:29;17.90;1.00
14924;DHT22;7554;43.600;1.480;2022-10-03T20:24:57;17.80;1.00
14924;DHT22;7554;43.600;1.480;2022-10-03T20:27:33;17.70;1.00
14924;DHT22;7554;43.600;1.480;2022-10-03T20:30:15;17.70;1.00
14924;DHT22;7554;43.600;1.480;2022-10-03T20:32:47;17.60;1.00
14924;DHT22;7554;43.600;1.480;2022-10-03T20:35:20;17.50;1.00
14924;DHT22;7554;43.600;1.480;2022-10-03T20:37:53;17.50;1.00
14924;DHT22;7554;43.600;1.480;2022-10-03T20:40:26;17.50;1.00
14924;DHT22;7554;43.600;1.480;2022-10-03T20:43:07;17.50;1.00
14924;DHT22;7554;43.600;1.480;2022-10-03T20:45:38;17.50;1.00
14924;DHT22;7554;43.600;1.480;2022-10-03T20:48:08;17.50;1.00
14924;DHT22;7554;43.600;1.480;2022-10-03T20:50:42;17.50;1.00
14924;DHT22;7554;43.600;1.480;2022-10-03T20:53:15;17.40;1.00
14924;DHT22;7554;43.600;1.480;2022-10-03T20:55:47;17.40;1.00
14924;DHT22;7554;43.600;1.480;2022-10-03T20:58:23;17.40;1.00
14924;DHT22;7554;43.600;1.480;2022-10-03T21:00:59;17.40;1.00